Startpagina
METAR-TAF:

METAR-TAF

Vliegvelden :

Luchthaven Dakar

Dakar, Senegal

breedte: 14-44N, lengte: 017-30W, hoogte: 27 m

Actueel weer

Dit bericht is 20 minuten geleden gemaakt, om 05:00 UTC
Weinig wind
Temperatuur 26°C
Vochtigheid 89%
Druk 1011 hPa
Zicht: 8000 m
Verspreide wolken op 1300 ft

METAR: GOOY 190500Z 00000KT 8000 SCT013 26/24 Q1011

Tijdstip: 05:20 (05:20 UTC)

Verwachting

Dit bericht is 5 uur en het 50 minuten geleden gemaakt, om 23:30 UTC
Verwachting geldig van 19 om 00 UTC tot 20 om 06 UTC
Wind 7 kt uit het noorden
Zicht 10 km of meer
Verspreide wolken op 1300 ft
Kans 30% :
Tijdelijke
van 19 om 02 UTC tot 19 om 06 UTC
Zicht: 4500 m
Gebroken wolken op 1300 ft
Weinig wolken op 2500 ft, Cumulonimbus.
onweer, regen

TAF: GOOY 182330Z 1900/2006 36007KT 9999 SCT013 PROB30 TEMPO 1902/1906 4500 TSRA BKN013 FEW025CB

Waarnemingen en weersverwachtingen van meer dan 4000 vliegvelden (METAR en TAF).

De beschikbare stations zijn de gele en rode punten op de kaart.

Ga met uw muis naar het station om de naam te zien.

Klik dan om waarnemingen en weersverwachtingen te zien.

kaart wijzigen: klik op de groene knoppen met een zwart kruis om in te zoomen, op de groene knop met een streepje om uit te zoomen of op de groene pijlen voor aangrenzende kaarten.


METAR-TAF: